createdAt,value
2018-12-25T00:03:23.482Z,11.77
2018-12-25T00:07:32.317Z,8.47
2018-12-25T00:11:42.816Z,9.23
2018-12-25T00:15:51.200Z,9.80
2018-12-25T00:19:59.216Z,13.23
2018-12-25T00:24:08.985Z,8.70
2018-12-25T00:28:17.932Z,10.83
2018-12-25T00:32:25.599Z,9.00
2018-12-25T00:36:33.668Z,13.23
2018-12-25T00:40:40.409Z,6.77
2018-12-25T00:44:48.179Z,7.50
2018-12-25T00:48:54.847Z,11.33
2018-12-25T00:53:04.047Z,7.77
2018-12-25T00:57:10.368Z,6.60
2018-12-25T01:01:20.915Z,7.77
2018-12-25T01:05:29.090Z,5.90
2018-12-25T01:09:38.022Z,8.90
2018-12-25T01:13:44.894Z,8.57
2018-12-25T01:17:53.212Z,9.17
2018-12-25T01:21:59.542Z,6.33
2018-12-25T01:26:06.547Z,7.70
2018-12-25T01:30:13.808Z,5.83
2018-12-25T01:34:24.589Z,7.97
2018-12-25T01:38:32.256Z,8.00
2018-12-25T01:42:38.940Z,5.23
2018-12-25T01:46:46.225Z,3.43
2018-12-25T01:50:53.845Z,7.83
2018-12-25T01:55:01.416Z,10.37
2018-12-25T01:59:08.471Z,9.23
2018-12-25T02:03:14.946Z,6.80
2018-12-25T02:07:22.236Z,7.83
2018-12-25T02:11:28.661Z,10.57
2018-12-25T02:15:38.370Z,6.63
2018-12-25T02:19:46.591Z,5.90
2018-12-25T02:23:54.374Z,9.30
2018-12-25T02:28:00.871Z,2.70
2018-12-25T02:32:08.459Z,8.80
2018-12-25T02:36:15.445Z,7.83
2018-12-25T02:40:22.633Z,7.47
2018-12-25T02:44:28.971Z,6.57
2018-12-25T02:48:36.774Z,8.23
2018-12-25T02:52:43.250Z,9.03
2018-12-25T02:56:53.399Z,8.87
2018-12-25T03:01:00.076Z,8.17
2018-12-25T03:05:07.207Z,6.10
2018-12-25T03:09:13.514Z,8.47
2018-12-25T03:13:21.466Z,8.33
2018-12-25T03:17:30.225Z,10.97
2018-12-25T03:21:36.779Z,10.17
2018-12-25T03:25:43.091Z,12.43
2018-12-25T03:29:51.936Z,8.20
2018-12-25T03:33:58.811Z,14.33
2018-12-25T03:38:05.561Z,9.50
2018-12-25T03:42:11.621Z,11.93
2018-12-25T03:46:18.241Z,16.03
2018-12-25T03:50:25.536Z,10.33
2018-12-25T03:54:31.689Z,13.23
2018-12-25T03:58:38.244Z,13.03
2018-12-25T04:02:45.517Z,11.03
2018-12-25T04:06:51.848Z,14.80
2018-12-25T04:10:58.463Z,12.67
2018-12-25T04:15:05.237Z,11.73
2018-12-25T04:19:12.295Z,14.90
2018-12-25T04:23:18.637Z,14.67
2018-12-25T04:27:25.326Z,15.73
2018-12-25T04:31:31.643Z,13.93
2018-12-25T04:35:41.139Z,20.73
2018-12-25T04:39:47.434Z,18.80
2018-12-25T04:43:55.209Z,17.00
2018-12-25T04:48:01.164Z,15.23
2018-12-25T04:52:08.757Z,21.20
2018-12-25T04:56:15.477Z,21.70
2018-12-25T05:00:22.095Z,22.47
2018-12-25T05:04:28.759Z,27.57
2018-12-25T05:08:36.037Z,26.43
2018-12-25T05:12:42.415Z,26.73
2018-12-25T05:16:48.828Z,22.47
2018-12-25T05:20:55.138Z,21.07
2018-12-25T05:25:02.437Z,26.47
2018-12-25T05:29:08.739Z,32.27
2018-12-25T05:33:15.506Z,32.47
2018-12-25T05:37:24.602Z,33.13
2018-12-25T05:41:31.688Z,34.20
2018-12-25T05:45:38.006Z,30.53
2018-12-25T05:49:46.922Z,25.10
2018-12-25T05:53:53.343Z,33.33
2018-12-25T05:58:01.058Z,35.17
2018-12-25T06:02:07.360Z,39.03
2018-12-25T06:06:13.854Z,36.03
2018-12-25T06:10:20.387Z,39.57
2018-12-25T06:14:27.951Z,36.47
2018-12-25T06:18:34.747Z,37.93
2018-12-25T06:22:41.324Z,40.67
2018-12-25T06:26:47.696Z,41.73
2018-12-25T06:30:55.067Z,45.70
2018-12-25T06:35:01.458Z,50.73
2018-12-25T06:39:09.066Z,47.30
2018-12-25T06:43:15.804Z,40.33
2018-12-25T06:47:23.780Z,45.67
2018-12-25T06:51:30.154Z,44.97
2018-12-25T06:55:36.749Z,47.03
2018-12-25T06:59:43.123Z,51.03
2018-12-25T07:03:50.769Z,51.83
2018-12-25T07:07:57.088Z,50.90
2018-12-25T07:12:03.795Z,56.23
2018-12-25T07:16:10.326Z,60.63
2018-12-25T07:20:17.796Z,61.37
2018-12-25T07:24:46.322Z,57.00
2018-12-25T07:28:52.945Z,56.90
2018-12-25T07:32:59.271Z,50.00
2018-12-25T07:37:07.486Z,55.27
2018-12-25T07:41:14.660Z,50.90
2018-12-25T07:45:25.518Z,52.00
2018-12-25T07:49:31.877Z,54.37
2018-12-25T07:53:39.195Z,52.87
2018-12-25T07:57:45.519Z,52.80
2018-12-25T08:06:20.648Z,57.13
2018-12-25T08:10:27.793Z,29.20
2018-12-25T08:14:34.421Z,53.03
2018-12-25T08:18:43.286Z,46.97
2018-12-25T08:22:49.993Z,39.37
2018-12-25T08:26:56.953Z,55.10
2018-12-25T08:31:03.521Z,60.93
2018-12-25T08:35:09.947Z,50.80
2018-12-25T08:39:16.862Z,51.07
2018-12-25T08:43:23.663Z,58.43
2018-12-25T08:47:31.730Z,52.40
2018-12-25T08:51:38.162Z,52.03
2018-12-25T08:55:48.726Z,49.17
2018-12-25T08:59:56.557Z,46.50
2018-12-25T09:04:04.198Z,47.90
2018-12-25T09:08:10.690Z,61.13
2018-12-25T09:12:17.516Z,57.40
2018-12-25T09:16:24.431Z,54.10
2018-12-25T09:20:31.064Z,51.17
2018-12-25T09:24:38.202Z,53.53
2018-12-25T09:28:46.938Z,48.43
2018-12-25T09:32:55.698Z,57.20
2018-12-25T09:37:02.283Z,56.70
2018-12-25T09:41:08.663Z,43.93
2018-12-25T09:45:16.805Z,54.33
2018-12-25T09:49:24.653Z,53.60
2018-12-25T09:53:31.265Z,55.10
2018-12-25T09:57:37.669Z,56.53
2018-12-25T10:01:44.529Z,54.13
2018-12-25T10:05:51.856Z,50.00
2018-12-25T10:09:58.602Z,56.33
2018-12-25T10:14:05.061Z,54.87
2018-12-25T10:18:11.704Z,50.00
2018-12-25T10:22:19.037Z,53.30
2018-12-25T10:26:27.508Z,49.63
2018-12-25T10:30:33.878Z,41.83
2018-12-25T10:34:41.452Z,55.77
2018-12-25T10:38:49.473Z,68.90
2018-12-25T10:42:56.138Z,64.33
2018-12-25T10:47:04.828Z,50.53
2018-12-25T10:51:11.597Z,56.77
2018-12-25T10:55:19.126Z,48.27
2018-12-25T10:59:26.187Z,57.70
2018-12-25T11:03:32.751Z,61.77
2018-12-25T11:07:39.581Z,53.23
2018-12-25T11:11:50.500Z,61.70
2018-12-25T11:15:56.864Z,71.37
2018-12-25T11:20:11.257Z,55.70
2018-12-25T11:24:11.725Z,57.53
2018-12-25T11:28:20.629Z,73.73
2018-12-25T11:32:27.150Z,72.93
2018-12-25T11:36:35.128Z,62.87
2018-12-25T11:40:41.762Z,64.97
2018-12-25T11:44:49.131Z,66.07
2018-12-25T11:48:56.100Z,62.33
2018-12-25T11:53:03.825Z,74.93
2018-12-25T11:57:10.574Z,67.17
2018-12-25T12:01:17.545Z,67.23
2018-12-25T12:05:24.045Z,59.97
2018-12-25T12:09:30.490Z,69.70
2018-12-25T12:13:44.200Z,53.33
2018-12-25T12:17:53.422Z,65.93
2018-12-25T12:21:59.900Z,50.27
2018-12-25T12:26:06.369Z,65.83
2018-12-25T12:30:13.601Z,60.13
2018-12-25T12:34:21.405Z,57.00
2018-12-25T12:38:28.492Z,52.13
2018-12-25T12:42:34.782Z,58.43
2018-12-25T12:46:41.578Z,63.23
2018-12-25T12:50:50.759Z,54.47
2018-12-25T12:55:02.848Z,57.80
2018-12-25T12:59:09.431Z,44.73
2018-12-25T13:03:16.189Z,49.47
2018-12-25T13:07:25.468Z,49.70
2018-12-25T13:11:33.550Z,51.77
2018-12-25T13:15:40.281Z,38.03
2018-12-25T13:19:48.220Z,44.57
2018-12-25T13:23:55.473Z,42.67
2018-12-25T13:28:01.915Z,44.83
2018-12-25T13:32:08.645Z,46.03
2018-12-25T13:36:15.297Z,44.47
2018-12-25T13:40:23.036Z,37.17
2018-12-25T13:44:30.694Z,36.40
2018-12-25T13:48:41.799Z,43.30
2018-12-25T13:52:53.193Z,41.23
2018-12-25T13:57:01.179Z,37.30
2018-12-25T14:01:07.960Z,35.03
2018-12-25T14:05:16.242Z,40.87
2018-12-25T14:09:24.423Z,41.33
2018-12-25T14:13:32.227Z,40.67
2018-12-25T14:17:39.161Z,41.13
2018-12-25T14:21:51.096Z,40.27
2018-12-25T14:25:58.654Z,38.87
2018-12-25T14:30:05.720Z,34.47
2018-12-25T14:34:12.436Z,37.47
2018-12-25T14:38:18.911Z,37.93
2018-12-25T14:42:28.191Z,35.40
2018-12-25T14:46:37.081Z,34.70
2018-12-25T14:50:44.386Z,36.83
2018-12-25T14:54:57.944Z,33.17
2018-12-25T14:59:05.932Z,39.63
2018-12-25T15:03:13.142Z,39.90
2018-12-25T15:07:19.881Z,38.53
2018-12-25T15:11:26.203Z,43.50
2018-12-25T15:15:32.859Z,41.47
2018-12-25T15:19:40.187Z,51.50
2018-12-25T15:23:46.543Z,51.53
2018-12-25T15:27:52.959Z,50.43
2018-12-25T15:31:59.556Z,52.43
2018-12-25T15:36:07.329Z,55.63
2018-12-25T15:40:13.885Z,49.80
2018-12-25T15:44:20.522Z,58.30
2018-12-25T15:48:27.275Z,58.03
2018-12-25T15:52:34.502Z,61.73
2018-12-25T15:56:42.100Z,59.73
2018-12-25T16:00:48.574Z,60.67
2018-12-25T16:04:55.338Z,55.53
2018-12-25T16:09:01.948Z,57.67
2018-12-25T16:13:09.742Z,65.87
2018-12-25T16:17:16.260Z,61.13
2018-12-25T16:21:22.836Z,75.40
2018-12-25T16:25:31.073Z,68.50
2018-12-25T16:29:37.581Z,75.37
2018-12-25T16:33:43.993Z,75.00
2018-12-25T16:37:50.647Z,77.50
2018-12-25T16:41:58.069Z,78.93
2018-12-25T16:46:04.600Z,82.23
2018-12-25T16:50:12.249Z,82.90
2018-12-25T16:54:18.913Z,95.00
2018-12-25T16:58:27.231Z,88.73
2018-12-25T17:02:33.740Z,88.90
2018-12-25T17:06:40.118Z,98.87
2018-12-25T17:10:47.995Z,99.20
2018-12-25T17:14:55.446Z,100.47
2018-12-25T17:19:03.367Z,94.10
2018-12-25T17:23:09.793Z,98.73
2018-12-25T17:27:16.176Z,94.13
2018-12-25T17:31:23.932Z,96.10
2018-12-25T17:35:31.738Z,92.83
2018-12-25T17:39:38.240Z,111.23
2018-12-25T17:43:44.687Z,89.83
2018-12-25T17:47:52.424Z,103.73
2018-12-25T17:51:58.899Z,94.53
2018-12-25T17:56:05.258Z,65.33
2018-12-25T18:00:12.095Z,82.43
2018-12-25T18:04:18.965Z,92.40
2018-12-25T18:08:25.507Z,78.90
2018-12-25T18:12:31.986Z,83.67
2018-12-25T18:16:38.503Z,84.57
2018-12-25T18:20:45.799Z,93.60
2018-12-25T18:24:52.374Z,99.47
2018-12-25T18:28:58.853Z,100.10
2018-12-25T18:33:05.532Z,94.50
2018-12-25T18:37:12.642Z,146.60
2018-12-25T18:41:19.005Z,74.70
2018-12-25T18:45:25.385Z,50.37
2018-12-25T18:49:32.657Z,68.70
2018-12-25T18:53:42.410Z,72.87
2018-12-25T18:57:48.998Z,63.43
2018-12-25T19:01:56.484Z,71.47
2018-12-25T19:06:03.846Z,68.33
2018-12-25T19:10:14.339Z,64.13
2018-12-25T19:14:20.885Z,63.47
2018-12-25T19:18:27.522Z,68.87
2018-12-25T19:22:35.244Z,67.47
2018-12-25T19:26:42.774Z,64.00
2018-12-25T19:30:49.275Z,59.67
2018-12-25T19:34:55.859Z,74.43
2018-12-25T19:39:05.220Z,81.30
2018-12-25T19:43:13.214Z,84.17
2018-12-25T19:47:19.691Z,74.00
2018-12-25T19:51:26.134Z,81.47
2018-12-25T19:55:35.537Z,64.83
2018-12-25T19:59:42.690Z,67.07
2018-12-25T20:04:09.398Z,60.87
2018-12-25T20:08:53.854Z,67.50
2018-12-25T20:13:23.627Z,67.87
2018-12-25T20:18:26.729Z,58.70
2018-12-25T20:22:47.898Z,53.13
2018-12-25T20:27:30.903Z,51.07
2018-12-25T20:32:16.800Z,59.07
2018-12-25T20:37:12.517Z,55.57
2018-12-25T20:42:13.386Z,52.97
2018-12-25T20:46:45.742Z,45.70
2018-12-25T20:51:37.039Z,44.73
2018-12-25T20:56:35.992Z,45.70
2018-12-25T21:01:34.887Z,43.13
2018-12-25T21:06:21.494Z,51.17
2018-12-25T21:11:14.788Z,55.40
2018-12-25T21:15:46.463Z,56.37
2018-12-25T21:20:10.609Z,54.53
2018-12-25T21:24:53.334Z,50.87
2018-12-25T21:28:59.801Z,55.17
2018-12-25T21:33:06.294Z,53.83
2018-12-25T21:37:14.260Z,56.23
2018-12-25T21:41:22.899Z,59.17
2018-12-25T21:45:30.098Z,49.63
2018-12-25T21:49:38.983Z,54.40
2018-12-25T21:53:45.545Z,59.33
2018-12-25T21:57:54.185Z,56.37
2018-12-25T22:02:02.862Z,60.40
2018-12-25T22:06:10.768Z,55.97
2018-12-25T22:10:18.932Z,40.60
2018-12-25T22:14:25.979Z,51.50
2018-12-25T22:18:33.354Z,51.67
2018-12-25T22:22:41.936Z,47.57
2018-12-25T22:26:50.822Z,37.87
2018-12-25T22:30:58.731Z,50.43
2018-12-25T22:35:06.001Z,53.63
2018-12-25T22:39:12.624Z,53.73
2018-12-25T22:43:19.124Z,37.30
2018-12-25T22:47:26.893Z,44.03
2018-12-25T22:51:33.523Z,47.67
2018-12-25T22:55:42.409Z,46.67
2018-12-25T22:59:50.552Z,41.97
2018-12-25T23:04:00.918Z,42.87
2018-12-25T23:08:10.826Z,30.80
2018-12-25T23:12:17.221Z,38.97
2018-12-25T23:16:23.838Z,45.03
2018-12-25T23:20:30.715Z,49.87
2018-12-25T23:24:38.199Z,52.70
2018-12-25T23:28:44.935Z,45.87
2018-12-25T23:32:52.552Z,36.57
2018-12-25T23:36:59.435Z,33.50
2018-12-25T23:41:06.436Z,44.13
2018-12-25T23:45:14.060Z,49.27
2018-12-25T23:49:20.483Z,32.77
2018-12-25T23:53:28.479Z,50.63
2018-12-25T23:57:35.098Z,45.17
